sensor_id;sensor_type;location;lat;lon;timestamp;temperature;humidity
15705;DHT22;7952;48.396;12.806;2023-04-30T00:01:43;14.40;53.30
15705;DHT22;7952;48.396;12.806;2023-04-30T00:04:09;14.40;53.30
15705;DHT22;7952;48.396;12.806;2023-04-30T00:06:35;14.40;53.40
15705;DHT22;7952;48.396;12.806;2023-04-30T00:09:01;14.40;53.30
15705;DHT22;7952;48.396;12.806;2023-04-30T00:11:26;14.40;53.30
15705;DHT22;7952;48.396;12.806;2023-04-30T00:13:52;14.40;53.30
15705;DHT22;7952;48.396;12.806;2023-04-30T00:16:18;14.40;53.30
15705;DHT22;7952;48.396;12.806;2023-04-30T00:18:44;14.40;53.40
15705;DHT22;7952;48.396;12.806;2023-04-30T00:21:10;14.40;53.40
15705;DHT22;7952;48.396;12.806;2023-04-30T00:23:36;14.40;53.40
15705;DHT22;7952;48.396;12.806;2023-04-30T00:26:02;14.40;53.40
15705;DHT22;7952;48.396;12.806;2023-04-30T00:28:27;14.40;53.40
15705;DHT22;7952;48.396;12.806;2023-04-30T00:30:53;14.40;53.30
15705;DHT22;7952;48.396;12.806;2023-04-30T00:33:19;14.40;53.40
15705;DHT22;7952;48.396;12.806;2023-04-30T00:35:45;14.40;53.30
15705;DHT22;7952;48.396;12.806;2023-04-30T00:38:11;14.40;53.40
15705;DHT22;7952;48.396;12.806;2023-04-30T00:40:37;14.40;53.40
15705;DHT22;7952;48.396;12.806;2023-04-30T00:43:04;14.40;53.40
15705;DHT22;7952;48.396;12.806;2023-04-30T00:45:30;14.40;53.40
15705;DHT22;7952;48.396;12.806;2023-04-30T00:47:56;14.40;53.40
15705;DHT22;7952;48.396;12.806;2023-04-30T00:50:22;14.40;53.50
15705;DHT22;7952;48.396;12.806;2023-04-30T00:52:48;14.40;53.50
15705;DHT22;7952;48.396;12.806;2023-04-30T00:55:14;14.30;53.40
15705;DHT22;7952;48.396;12.806;2023-04-30T00:57:40;14.40;53.50
15705;DHT22;7952;48.396;12.806;2023-04-30T01:00:06;14.30;53.50
15705;DHT22;7952;48.396;12.806;2023-04-30T01:02:36;14.30;53.90
15705;DHT22;7952;48.396;12.806;2023-04-30T01:05:02;14.30;53.50
15705;DHT22;7952;48.396;12.806;2023-04-30T01:07:30;14.30;53.50
15705;DHT22;7952;48.396;12.806;2023-04-30T01:09:56;14.30;53.50
15705;DHT22;7952;48.396;12.806;2023-04-30T01:15:08;14.30;53.60
15705;DHT22;7952;48.396;12.806;2023-04-30T01:20:10;14.30;53.60
15705;DHT22;7952;48.396;12.806;2023-04-30T01:23:10;14.20;53.50
15705;DHT22;7952;48.396;12.806;2023-04-30T01:28:49;14.20;53.50
15705;DHT22;7952;48.396;12.806;2023-04-30T01:31:19;14.20;53.60
15705;DHT22;7952;48.396;12.806;2023-04-30T01:33:45;14.20;53.60
15705;DHT22;7952;48.396;12.806;2023-04-30T01:36:25;14.20;53.60
15705;DHT22;7952;48.396;12.806;2023-04-30T01:39:07;14.20;53.60
15705;DHT22;7952;48.396;12.806;2023-04-30T01:47:34;14.10;53.60
15705;DHT22;7952;48.396;12.806;2023-04-30T01:53:08;14.10;53.70
15705;DHT22;7952;48.396;12.806;2023-04-30T01:55:50;14.10;53.80
15705;DHT22;7952;48.396;12.806;2023-04-30T01:58:19;14.00;53.70
15705;DHT22;7952;48.396;12.806;2023-04-30T02:00:47;14.00;53.70
15705;DHT22;7952;48.396;12.806;2023-04-30T02:03:12;14.00;53.70
15705;DHT22;7952;48.396;12.806;2023-04-30T02:05:38;14.00;53.70
15705;DHT22;7952;48.396;12.806;2023-04-30T02:08:04;14.00;53.70
15705;DHT22;7952;48.396;12.806;2023-04-30T02:10:30;14.00;53.70
15705;DHT22;7952;48.396;12.806;2023-04-30T02:12:56;14.00;53.80
15705;DHT22;7952;48.396;12.806;2023-04-30T02:15:22;14.00;53.80
15705;DHT22;7952;48.396;12.806;2023-04-30T02:17:47;14.00;53.80
15705;DHT22;7952;48.396;12.806;2023-04-30T02:20:13;14.00;53.80
15705;DHT22;7952;48.396;12.806;2023-04-30T02:22:39;13.90;53.70
15705;DHT22;7952;48.396;12.806;2023-04-30T02:25:05;13.90;53.70
15705;DHT22;7952;48.396;12.806;2023-04-30T02:27:32;13.90;53.70
15705;DHT22;7952;48.396;12.806;2023-04-30T02:29:58;13.90;53.80
15705;DHT22;7952;48.396;12.806;2023-04-30T02:32:25;13.80;53.70
15705;DHT22;7952;48.396;12.806;2023-04-30T02:34:51;13.80;53.80
15705;DHT22;7952;48.396;12.806;2023-04-30T02:37:16;13.80;53.80
15705;DHT22;7952;48.396;12.806;2023-04-30T02:39:42;13.70;53.80
15705;DHT22;7952;48.396;12.806;2023-04-30T02:42:11;13.70;53.80
15705;DHT22;7952;48.396;12.806;2023-04-30T02:44:42;13.70;53.80
15705;DHT22;7952;48.396;12.806;2023-04-30T02:50:25;13.60;53.80
15705;DHT22;7952;48.396;12.806;2023-04-30T02:53:11;13.60;53.90
15705;DHT22;7952;48.396;12.806;2023-04-30T02:56:00;13.60;53.90
15705;DHT22;7952;48.396;12.806;2023-04-30T02:59:06;13.50;53.90
15705;DHT22;7952;48.396;12.806;2023-04-30T03:01:32;13.50;53.90
15705;DHT22;7952;48.396;12.806;2023-04-30T03:03:58;13.40;53.90
15705;DHT22;7952;48.396;12.806;2023-04-30T03:06:31;13.40;54.00
15705;DHT22;7952;48.396;12.806;2023-04-30T03:09:03;13.40;54.00
15705;DHT22;7952;48.396;12.806;2023-04-30T03:11:36;13.40;54.00
15705;DHT22;7952;48.396;12.806;2023-04-30T03:14:46;13.30;53.90
15705;DHT22;7952;48.396;12.806;2023-04-30T03:20:55;13.30;54.00
15705;DHT22;7952;48.396;12.806;2023-04-30T03:27:20;13.20;54.00
15705;DHT22;7952;48.396;12.806;2023-04-30T03:32:57;13.20;54.10
15705;DHT22;7952;48.396;12.806;2023-04-30T03:35:45;13.10;54.00
15705;DHT22;7952;48.396;12.806;2023-04-30T03:38:29;13.10;54.10
15705;DHT22;7952;48.396;12.806;2023-04-30T03:41:01;13.10;54.10
15705;DHT22;7952;48.396;12.806;2023-04-30T03:43:30;13.10;54.10
15705;DHT22;7952;48.396;12.806;2023-04-30T03:46:06;13.10;54.10
15705;DHT22;7952;48.396;12.806;2023-04-30T03:48:41;13.00;54.10
15705;DHT22;7952;48.396;12.806;2023-04-30T03:51:27;13.00;54.10
15705;DHT22;7952;48.396;12.806;2023-04-30T03:53:53;12.90;54.10
15705;DHT22;7952;48.396;12.806;2023-04-30T03:56:22;12.90;54.10
15705;DHT22;7952;48.396;12.806;2023-04-30T03:58:57;12.90;54.20
15705;DHT22;7952;48.396;12.806;2023-04-30T04:01:23;13.00;54.20
15705;DHT22;7952;48.396;12.806;2023-04-30T04:03:49;13.00;54.20
15705;DHT22;7952;48.396;12.806;2023-04-30T04:06:19;13.00;54.20
15705;DHT22;7952;48.396;12.806;2023-04-30T04:08:45;13.00;54.10
15705;DHT22;7952;48.396;12.806;2023-04-30T04:17:38;13.10;54.00
15705;DHT22;7952;48.396;12.806;2023-04-30T04:20:08;13.10;53.90
15705;DHT22;7952;48.396;12.806;2023-04-30T04:23:03;13.00;53.80
15705;DHT22;7952;48.396;12.806;2023-04-30T04:25:55;13.00;53.90
15705;DHT22;7952;48.396;12.806;2023-04-30T04:28:22;13.00;53.90
15705;DHT22;7952;48.396;12.806;2023-04-30T04:30:47;13.00;54.00
15705;DHT22;7952;48.396;12.806;2023-04-30T04:33:14;12.90;53.90
15705;DHT22;7952;48.396;12.806;2023-04-30T04:35:52;12.90;53.90
15705;DHT22;7952;48.396;12.806;2023-04-30T04:38:17;12.90;54.00
15705;DHT22;7952;48.396;12.806;2023-04-30T04:40:53;12.90;54.00
15705;DHT22;7952;48.396;12.806;2023-04-30T04:43:34;12.90;54.10
15705;DHT22;7952;48.396;12.806;2023-04-30T04:46:15;12.90;54.00
15705;DHT22;7952;48.396;12.806;2023-04-30T04:48:45;12.90;54.10
15705;DHT22;7952;48.396;12.806;2023-04-30T04:51:14;13.00;54.10
15705;DHT22;7952;48.396;12.806;2023-04-30T04:53:40;12.90;54.00
15705;DHT22;7952;48.396;12.806;2023-04-30T04:56:12;12.90;54.00
15705;DHT22;7952;48.396;12.806;2023-04-30T04:58:42;12.90;54.00
15705;DHT22;7952;48.396;12.806;2023-04-30T05:01:12;13.00;54.10
15705;DHT22;7952;48.396;12.806;2023-04-30T05:03:43;13.00;54.10
15705;DHT22;7952;48.396;12.806;2023-04-30T05:06:21;13.00;54.10
15705;DHT22;7952;48.396;12.806;2023-04-30T05:08:47;13.00;54.10
15705;DHT22;7952;48.396;12.806;2023-04-30T05:11:13;13.00;54.10
15705;DHT22;7952;48.396;12.806;2023-04-30T05:13:57;13.10;54.20
15705;DHT22;7952;48.396;12.806;2023-04-30T05:16:47;13.10;54.20
15705;DHT22;7952;48.396;12.806;2023-04-30T05:19:26;13.10;54.70
15705;DHT22;7952;48.396;12.806;2023-04-30T05:22:03;13.20;54.20
15705;DHT22;7952;48.396;12.806;2023-04-30T05:24:50;13.20;54.20
15705;DHT22;7952;48.396;12.806;2023-04-30T05:27:40;13.30;54.20
15705;DHT22;7952;48.396;12.806;2023-04-30T05:33:28;13.40;54.20
15705;DHT22;7952;48.396;12.806;2023-04-30T05:36:01;13.40;54.10
15705;DHT22;7952;48.396;12.806;2023-04-30T05:41:48;13.50;54.10
15705;DHT22;7952;48.396;12.806;2023-04-30T05:48:31;13.60;54.00
15705;DHT22;7952;48.396;12.806;2023-04-30T05:54:48;13.70;54.00
15705;DHT22;7952;48.396;12.806;2023-04-30T05:57:15;13.70;54.00
15705;DHT22;7952;48.396;12.806;2023-04-30T05:59:50;13.80;54.00
15705;DHT22;7952;48.396;12.806;2023-04-30T06:02:19;13.90;54.10
15705;DHT22;7952;48.396;12.806;2023-04-30T06:04:44;13.90;54.00
15705;DHT22;7952;48.396;12.806;2023-04-30T06:07:11;13.90;54.00
15705;DHT22;7952;48.396;12.806;2023-04-30T06:09:37;13.90;53.90
15705;DHT22;7952;48.396;12.806;2023-04-30T06:12:03;14.00;53.90
15705;DHT22;7952;48.396;12.806;2023-04-30T06:14:29;14.00;54.10
15705;DHT22;7952;48.396;12.806;2023-04-30T06:16:55;14.00;53.90
15705;DHT22;7952;48.396;12.806;2023-04-30T06:19:21;14.00;53.80
15705;DHT22;7952;48.396;12.806;2023-04-30T06:21:47;14.10;53.90
15705;DHT22;7952;48.396;12.806;2023-04-30T06:24:12;14.10;53.90
15705;DHT22;7952;48.396;12.806;2023-04-30T06:26:38;14.10;53.80
15705;DHT22;7952;48.396;12.806;2023-04-30T06:29:07;14.20;53.80
15705;DHT22;7952;48.396;12.806;2023-04-30T06:31:32;14.20;53.80
15705;DHT22;7952;48.396;12.806;2023-04-30T06:33:58;14.20;53.70
15705;DHT22;7952;48.396;12.806;2023-04-30T06:36:24;14.20;53.70
15705;DHT22;7952;48.396;12.806;2023-04-30T06:38:49;14.30;53.80
15705;DHT22;7952;48.396;12.806;2023-04-30T06:41:15;14.30;53.80
15705;DHT22;7952;48.396;12.806;2023-04-30T06:43:42;14.30;53.80
15705;DHT22;7952;48.396;12.806;2023-04-30T06:46:08;14.30;53.80
15705;DHT22;7952;48.396;12.806;2023-04-30T06:48:34;14.40;53.80
15705;DHT22;7952;48.396;12.806;2023-04-30T06:50:59;14.40;53.80
15705;DHT22;7952;48.396;12.806;2023-04-30T06:53:25;14.50;53.80
15705;DHT22;7952;48.396;12.806;2023-04-30T06:55:51;14.50;53.80
15705;DHT22;7952;48.396;12.806;2023-04-30T06:58:17;14.60;53.80
15705;DHT22;7952;48.396;12.806;2023-04-30T07:00:51;14.70;53.90
15705;DHT22;7952;48.396;12.806;2023-04-30T07:03:17;14.80;53.90
15705;DHT22;7952;48.396;12.806;2023-04-30T07:05:43;14.80;53.80
15705;DHT22;7952;48.396;12.806;2023-04-30T07:08:09;15.00;53.90
15705;DHT22;7952;48.396;12.806;2023-04-30T07:10:35;15.00;53.70
15705;DHT22;7952;48.396;12.806;2023-04-30T07:13:01;15.10;53.60
15705;DHT22;7952;48.396;12.806;2023-04-30T07:15:26;15.20;53.50
15705;DHT22;7952;48.396;12.806;2023-04-30T07:17:52;15.40;53.60
15705;DHT22;7952;48.396;12.806;2023-04-30T07:20:18;15.60;53.70
15705;DHT22;7952;48.396;12.806;2023-04-30T07:22:44;15.80;53.60
15705;DHT22;7952;48.396;12.806;2023-04-30T07:25:14;16.00;53.40
15705;DHT22;7952;48.396;12.806;2023-04-30T07:27:39;16.10;53.20
15705;DHT22;7952;48.396;12.806;2023-04-30T07:30:06;16.20;53.10
15705;DHT22;7952;48.396;12.806;2023-04-30T07:32:36;16.30;53.00
15705;DHT22;7952;48.396;12.806;2023-04-30T07:35:03;16.30;52.80
15705;DHT22;7952;48.396;12.806;2023-04-30T07:37:29;16.40;52.90
15705;DHT22;7952;48.396;12.806;2023-04-30T07:39:55;16.40;52.90
15705;DHT22;7952;48.396;12.806;2023-04-30T07:42:21;16.50;52.70
15705;DHT22;7952;48.396;12.806;2023-04-30T07:44:47;16.50;52.60
15705;DHT22;7952;48.396;12.806;2023-04-30T07:47:13;16.50;52.60
15705;DHT22;7952;48.396;12.806;2023-04-30T07:49:39;16.50;52.60
15705;DHT22;7952;48.396;12.806;2023-04-30T07:52:05;16.50;52.70
15705;DHT22;7952;48.396;12.806;2023-04-30T07:54:32;16.60;52.60
15705;DHT22;7952;48.396;12.806;2023-04-30T07:57:00;16.60;52.60
15705;DHT22;7952;48.396;12.806;2023-04-30T07:59:27;16.60;52.40
15705;DHT22;7952;48.396;12.806;2023-04-30T08:01:53;16.70;52.30
15705;DHT22;7952;48.396;12.806;2023-04-30T08:04:19;16.70;52.30
15705;DHT22;7952;48.396;12.806;2023-04-30T08:06:48;16.80;52.30
15705;DHT22;7952;48.396;12.806;2023-04-30T08:09:13;16.80;52.20
15705;DHT22;7952;48.396;12.806;2023-04-30T08:11:40;16.80;52.30
15705;DHT22;7952;48.396;12.806;2023-04-30T08:14:06;16.90;52.20
15705;DHT22;7952;48.396;12.806;2023-04-30T08:16:32;16.90;52.60
15705;DHT22;7952;48.396;12.806;2023-04-30T08:18:58;17.00;52.10
15705;DHT22;7952;48.396;12.806;2023-04-30T08:21:25;17.00;52.10
15705;DHT22;7952;48.396;12.806;2023-04-30T08:23:53;17.00;52.10
15705;DHT22;7952;48.396;12.806;2023-04-30T08:26:19;17.10;52.00
15705;DHT22;7952;48.396;12.806;2023-04-30T08:28:45;17.10;52.00
15705;DHT22;7952;48.396;12.806;2023-04-30T08:31:12;17.20;51.80
15705;DHT22;7952;48.396;12.806;2023-04-30T08:33:37;17.20;51.80
15705;DHT22;7952;48.396;12.806;2023-04-30T08:36:07;17.30;51.80
15705;DHT22;7952;48.396;12.806;2023-04-30T08:38:32;17.30;51.60
15705;DHT22;7952;48.396;12.806;2023-04-30T08:43:33;17.40;51.50
15705;DHT22;7952;48.396;12.806;2023-04-30T08:46:00;17.40;51.40
15705;DHT22;7952;48.396;12.806;2023-04-30T08:48:28;17.50;51.60
15705;DHT22;7952;48.396;12.806;2023-04-30T08:50:54;17.50;51.40
15705;DHT22;7952;48.396;12.806;2023-04-30T08:53:20;17.60;51.50
15705;DHT22;7952;48.396;12.806;2023-04-30T08:55:46;17.70;51.40
15705;DHT22;7952;48.396;12.806;2023-04-30T08:58:12;17.80;51.40
15705;DHT22;7952;48.396;12.806;2023-04-30T09:00:39;17.80;51.10
15705;DHT22;7952;48.396;12.806;2023-04-30T09:03:06;17.90;51.00
15705;DHT22;7952;48.396;12.806;2023-04-30T09:05:32;18.00;51.00
15705;DHT22;7952;48.396;12.806;2023-04-30T09:07:58;18.00;51.00
15705;DHT22;7952;48.396;12.806;2023-04-30T09:10:24;18.10;50.90
15705;DHT22;7952;48.396;12.806;2023-04-30T09:13:07;18.20;51.00
15705;DHT22;7952;48.396;12.806;2023-04-30T09:15:35;18.30;51.20
15705;DHT22;7952;48.396;12.806;2023-04-30T09:18:15;18.40;51.00
15705;DHT22;7952;48.396;12.806;2023-04-30T09:20:55;18.60;50.80
15705;DHT22;7952;48.396;12.806;2023-04-30T09:23:21;18.70;50.90
15705;DHT22;7952;48.396;12.806;2023-04-30T09:25:47;18.80;50.90
15705;DHT22;7952;48.396;12.806;2023-04-30T09:28:13;18.90;50.80
15705;DHT22;7952;48.396;12.806;2023-04-30T09:30:40;19.10;50.80
15705;DHT22;7952;48.396;12.806;2023-04-30T09:33:06;19.20;50.50
15705;DHT22;7952;48.396;12.806;2023-04-30T09:35:34;19.20;50.40
15705;DHT22;7952;48.396;12.806;2023-04-30T09:38:01;19.30;50.50
15705;DHT22;7952;48.396;12.806;2023-04-30T09:40:41;19.40;50.40
15705;DHT22;7952;48.396;12.806;2023-04-30T09:43:07;19.50;50.30
15705;DHT22;7952;48.396;12.806;2023-04-30T09:45:46;19.50;49.80
15705;DHT22;7952;48.396;12.806;2023-04-30T09:48:20;19.40;49.70
15705;DHT22;7952;48.396;12.806;2023-04-30T09:50:47;19.30;49.60
15705;DHT22;7952;48.396;12.806;2023-04-30T09:53:13;19.20;49.50
15705;DHT22;7952;48.396;12.806;2023-04-30T09:55:43;19.10;49.60
15705;DHT22;7952;48.396;12.806;2023-04-30T09:58:11;18.90;49.60
15705;DHT22;7952;48.396;12.806;2023-04-30T10:00:37;18.80;49.60
15705;DHT22;7952;48.396;12.806;2023-04-30T10:03:09;18.70;49.60
15705;DHT22;7952;48.396;12.806;2023-04-30T10:05:36;18.60;49.60
15705;DHT22;7952;48.396;12.806;2023-04-30T10:08:06;18.50;49.60
15705;DHT22;7952;48.396;12.806;2023-04-30T10:10:32;18.40;49.50
15705;DHT22;7952;48.396;12.806;2023-04-30T10:13:03;18.30;49.60
15705;DHT22;7952;48.396;12.806;2023-04-30T10:15:37;18.20;49.50
15705;DHT22;7952;48.396;12.806;2023-04-30T10:18:28;18.20;49.60
15705;DHT22;7952;48.396;12.806;2023-04-30T10:20:56;18.10;49.50
15705;DHT22;7952;48.396;12.806;2023-04-30T10:23:24;18.10;49.50
15705;DHT22;7952;48.396;12.806;2023-04-30T10:25:50;18.10;49.40
15705;DHT22;7952;48.396;12.806;2023-04-30T10:28:16;18.00;49.40
15705;DHT22;7952;48.396;12.806;2023-04-30T10:30:41;18.00;49.50
15705;DHT22;7952;48.396;12.806;2023-04-30T10:35:48;18.10;49.40
15705;DHT22;7952;48.396;12.806;2023-04-30T10:38:27;18.20;49.40
15705;DHT22;7952;48.396;12.806;2023-04-30T10:41:01;18.40;49.40
15705;DHT22;7952;48.396;12.806;2023-04-30T10:43:29;18.50;49.30
15705;DHT22;7952;48.396;12.806;2023-04-30T10:45:58;18.50;49.10
15705;DHT22;7952;48.396;12.806;2023-04-30T10:48:24;18.50;48.90
15705;DHT22;7952;48.396;12.806;2023-04-30T10:50:56;18.50;48.70
15705;DHT22;7952;48.396;12.806;2023-04-30T10:53:22;18.50;48.80
15705;DHT22;7952;48.396;12.806;2023-04-30T10:55:57;18.60;49.10
15705;DHT22;7952;48.396;12.806;2023-04-30T10:58:32;18.70;49.30
15705;DHT22;7952;48.396;12.806;2023-04-30T11:03:31;19.10;49.10
15705;DHT22;7952;48.396;12.806;2023-04-30T11:05:58;19.20;48.60
15705;DHT22;7952;48.396;12.806;2023-04-30T11:08:32;19.30;48.20
15705;DHT22;7952;48.396;12.806;2023-04-30T11:10:59;19.30;48.20
15705;DHT22;7952;48.396;12.806;2023-04-30T11:13:26;19.30;48.10
15705;DHT22;7952;48.396;12.806;2023-04-30T11:15:52;19.20;48.10
15705;DHT22;7952;48.396;12.806;2023-04-30T11:18:18;19.20;48.00
15705;DHT22;7952;48.396;12.806;2023-04-30T11:20:50;19.10;47.90
15705;DHT22;7952;48.396;12.806;2023-04-30T11:23:20;19.10;48.00
15705;DHT22;7952;48.396;12.806;2023-04-30T11:25:47;18.90;47.80
15705;DHT22;7952;48.396;12.806;2023-04-30T11:28:31;18.90;47.90
15705;DHT22;7952;48.396;12.806;2023-04-30T11:31:00;18.80;48.00
15705;DHT22;7952;48.396;12.806;2023-04-30T11:33:27;18.80;48.10
15705;DHT22;7952;48.396;12.806;2023-04-30T11:35:55;18.80;48.30
15705;DHT22;7952;48.396;12.806;2023-04-30T11:38:26;18.90;48.30
15705;DHT22;7952;48.396;12.806;2023-04-30T11:40:52;18.90;48.20
15705;DHT22;7952;48.396;12.806;2023-04-30T11:43:30;19.00;48.20
15705;DHT22;7952;48.396;12.806;2023-04-30T11:46:15;19.00;48.10
15705;DHT22;7952;48.396;12.806;2023-04-30T11:48:44;19.00;47.90
15705;DHT22;7952;48.396;12.806;2023-04-30T11:51:18;19.00;47.90
15705;DHT22;7952;48.396;12.806;2023-04-30T11:53:46;19.00;47.70
15705;DHT22;7952;48.396;12.806;2023-04-30T11:56:13;18.90;47.60
15705;DHT22;7952;48.396;12.806;2023-04-30T11:58:39;18.90;47.50
15705;DHT22;7952;48.396;12.806;2023-04-30T12:01:08;18.90;47.50
15705;DHT22;7952;48.396;12.806;2023-04-30T12:03:48;18.90;47.70
15705;DHT22;7952;48.396;12.806;2023-04-30T12:06:32;18.90;47.80
15705;DHT22;7952;48.396;12.806;2023-04-30T12:09:02;18.90;47.80
15705;DHT22;7952;48.396;12.806;2023-04-30T12:11:34;18.90;47.90
15705;DHT22;7952;48.396;12.806;2023-04-30T12:14:01;18.90;47.90
15705;DHT22;7952;48.396;12.806;2023-04-30T12:16:46;19.00;47.90
15705;DHT22;7952;48.396;12.806;2023-04-30T12:19:15;19.20;47.90
15705;DHT22;7952;48.396;12.806;2023-04-30T12:21:42;19.20;47.50
15705;DHT22;7952;48.396;12.806;2023-04-30T12:24:16;19.30;47.50
15705;DHT22;7952;48.396;12.806;2023-04-30T12:26:42;19.20;47.30
15705;DHT22;7952;48.396;12.806;2023-04-30T12:31:36;19.20;47.30
15705;DHT22;7952;48.396;12.806;2023-04-30T12:34:06;19.20;47.20
15705;DHT22;7952;48.396;12.806;2023-04-30T12:36:33;19.20;47.30
15705;DHT22;7952;48.396;12.806;2023-04-30T12:39:05;19.20;47.50
15705;DHT22;7952;48.396;12.806;2023-04-30T12:41:43;19.20;47.40
15705;DHT22;7952;48.396;12.806;2023-04-30T12:44:19;19.20;47.30
15705;DHT22;7952;48.396;12.806;2023-04-30T12:46:47;19.20;47.30
15705;DHT22;7952;48.396;12.806;2023-04-30T12:49:22;19.20;47.20
15705;DHT22;7952;48.396;12.806;2023-04-30T12:51:48;19.20;47.20
15705;DHT22;7952;48.396;12.806;2023-04-30T12:54:14;19.20;47.30
15705;DHT22;7952;48.396;12.806;2023-04-30T12:56:59;19.30;47.50
15705;DHT22;7952;48.396;12.806;2023-04-30T12:59:29;19.30;47.20
15705;DHT22;7952;48.396;12.806;2023-04-30T13:02:13;19.40;47.10
15705;DHT22;7952;48.396;12.806;2023-04-30T13:04:43;19.40;47.00
15705;DHT22;7952;48.396;12.806;2023-04-30T13:07:09;19.40;47.00
15705;DHT22;7952;48.396;12.806;2023-04-30T13:09:36;19.40;47.00
15705;DHT22;7952;48.396;12.806;2023-04-30T13:12:03;19.30;46.80
15705;DHT22;7952;48.396;12.806;2023-04-30T13:14:30;19.30;46.70
15705;DHT22;7952;48.396;12.806;2023-04-30T13:16:56;19.20;46.70
15705;DHT22;7952;48.396;12.806;2023-04-30T13:19:22;19.20;46.80
15705;DHT22;7952;48.396;12.806;2023-04-30T13:21:47;19.10;46.90
15705;DHT22;7952;48.396;12.806;2023-04-30T13:24:13;19.20;47.10
15705;DHT22;7952;48.396;12.806;2023-04-30T13:26:39;19.20;47.10
15705;DHT22;7952;48.396;12.806;2023-04-30T13:29:05;19.20;46.90
15705;DHT22;7952;48.396;12.806;2023-04-30T13:31:31;19.30;46.90
15705;DHT22;7952;48.396;12.806;2023-04-30T13:33:57;19.30;46.70
15705;DHT22;7952;48.396;12.806;2023-04-30T13:36:23;19.30;46.50
15705;DHT22;7952;48.396;12.806;2023-04-30T13:38:49;19.40;46.60
15705;DHT22;7952;48.396;12.806;2023-04-30T13:41:15;19.40;46.60
15705;DHT22;7952;48.396;12.806;2023-04-30T13:43:40;19.40;46.40
15705;DHT22;7952;48.396;12.806;2023-04-30T13:46:10;19.40;46.40
15705;DHT22;7952;48.396;12.806;2023-04-30T13:48:35;19.40;46.30
15705;DHT22;7952;48.396;12.806;2023-04-30T13:51:01;19.30;46.20
15705;DHT22;7952;48.396;12.806;2023-04-30T13:53:27;19.20;46.70
15705;DHT22;7952;48.396;12.806;2023-04-30T13:55:53;19.20;46.20
15705;DHT22;7952;48.396;12.806;2023-04-30T13:58:19;19.20;46.30
15705;DHT22;7952;48.396;12.806;2023-04-30T14:00:45;19.30;46.50
15705;DHT22;7952;48.396;12.806;2023-04-30T14:03:10;19.40;46.40
15705;DHT22;7952;48.396;12.806;2023-04-30T14:05:37;19.50;46.50
15705;DHT22;7952;48.396;12.806;2023-04-30T14:08:04;19.60;46.30
15705;DHT22;7952;48.396;12.806;2023-04-30T14:10:30;19.70;45.90
15705;DHT22;7952;48.396;12.806;2023-04-30T14:12:56;19.70;45.60
15705;DHT22;7952;48.396;12.806;2023-04-30T14:15:22;19.70;45.60
15705;DHT22;7952;48.396;12.806;2023-04-30T14:17:49;19.70;45.60
15705;DHT22;7952;48.396;12.806;2023-04-30T14:20:14;19.70;45.70
15705;DHT22;7952;48.396;12.806;2023-04-30T14:22:40;19.80;45.70
15705;DHT22;7952;48.396;12.806;2023-04-30T14:25:07;19.80;45.50
15705;DHT22;7952;48.396;12.806;2023-04-30T14:27:34;19.80;45.40
15705;DHT22;7952;48.396;12.806;2023-04-30T14:29:59;19.70;45.30
15705;DHT22;7952;48.396;12.806;2023-04-30T14:32:25;19.70;45.40
15705;DHT22;7952;48.396;12.806;2023-04-30T14:34:51;19.60;45.40
15705;DHT22;7952;48.396;12.806;2023-04-30T14:37:17;19.50;45.30
15705;DHT22;7952;48.396;12.806;2023-04-30T14:39:43;19.40;45.20
15705;DHT22;7952;48.396;12.806;2023-04-30T14:42:09;19.30;45.20
15705;DHT22;7952;48.396;12.806;2023-04-30T14:44:36;19.20;45.20
15705;DHT22;7952;48.396;12.806;2023-04-30T14:47:02;19.20;45.30
15705;DHT22;7952;48.396;12.806;2023-04-30T14:49:29;19.00;45.20
15705;DHT22;7952;48.396;12.806;2023-04-30T14:51:54;18.90;45.30
15705;DHT22;7952;48.396;12.806;2023-04-30T14:54:20;18.90;45.50
15705;DHT22;7952;48.396;12.806;2023-04-30T14:56:46;18.90;45.70
15705;DHT22;7952;48.396;12.806;2023-04-30T14:59:12;18.80;45.70
15705;DHT22;7952;48.396;12.806;2023-04-30T15:01:39;18.90;45.90
15705;DHT22;7952;48.396;12.806;2023-04-30T15:04:04;18.90;45.80
15705;DHT22;7952;48.396;12.806;2023-04-30T15:06:31;18.90;45.70
15705;DHT22;7952;48.396;12.806;2023-04-30T15:08:57;18.90;45.50
15705;DHT22;7952;48.396;12.806;2023-04-30T15:11:23;18.80;45.30
15705;DHT22;7952;48.396;12.806;2023-04-30T15:13:49;18.70;45.10
15705;DHT22;7952;48.396;12.806;2023-04-30T15:16:15;18.70;45.10
15705;DHT22;7952;48.396;12.806;2023-04-30T15:18:42;18.70;45.30
15705;DHT22;7952;48.396;12.806;2023-04-30T15:21:08;18.70;45.40
15705;DHT22;7952;48.396;12.806;2023-04-30T15:23:34;18.70;45.50
15705;DHT22;7952;48.396;12.806;2023-04-30T15:26:03;18.70;45.30
15705;DHT22;7952;48.396;12.806;2023-04-30T15:28:32;18.70;45.10
15705;DHT22;7952;48.396;12.806;2023-04-30T15:31:00;18.70;45.00
15705;DHT22;7952;48.396;12.806;2023-04-30T15:33:30;18.70;45.10
15705;DHT22;7952;48.396;12.806;2023-04-30T15:35:57;18.60;45.00
15705;DHT22;7952;48.396;12.806;2023-04-30T15:38:23;18.60;45.00
15705;DHT22;7952;48.396;12.806;2023-04-30T15:40:49;18.60;45.00
15705;DHT22;7952;48.396;12.806;2023-04-30T15:43:15;18.60;44.80
15705;DHT22;7952;48.396;12.806;2023-04-30T15:45:42;18.60;44.60
15705;DHT22;7952;48.396;12.806;2023-04-30T15:48:10;18.60;44.50
15705;DHT22;7952;48.396;12.806;2023-04-30T15:50:36;18.50;44.40
15705;DHT22;7952;48.396;12.806;2023-04-30T15:53:01;18.50;44.40
15705;DHT22;7952;48.396;12.806;2023-04-30T15:55:27;18.50;44.50
15705;DHT22;7952;48.396;12.806;2023-04-30T15:57:53;18.50;44.50
15705;DHT22;7952;48.396;12.806;2023-04-30T16:00:19;18.50;44.50
15705;DHT22;7952;48.396;12.806;2023-04-30T16:02:45;18.50;44.50
15705;DHT22;7952;48.396;12.806;2023-04-30T16:05:11;18.50;44.60
15705;DHT22;7952;48.396;12.806;2023-04-30T16:07:37;18.40;44.40
15705;DHT22;7952;48.396;12.806;2023-04-30T16:10:03;18.40;44.40
15705;DHT22;7952;48.396;12.806;2023-04-30T16:12:29;18.40;44.30
15705;DHT22;7952;48.396;12.806;2023-04-30T16:14:55;18.40;44.20
15705;DHT22;7952;48.396;12.806;2023-04-30T16:17:20;18.30;44.10
15705;DHT22;7952;48.396;12.806;2023-04-30T16:19:46;18.30;44.10
15705;DHT22;7952;48.396;12.806;2023-04-30T16:22:12;18.30;44.20
15705;DHT22;7952;48.396;12.806;2023-04-30T16:24:38;18.30;44.20
15705;DHT22;7952;48.396;12.806;2023-04-30T16:27:04;18.20;44.10
15705;DHT22;7952;48.396;12.806;2023-04-30T16:29:29;18.20;44.20
15705;DHT22;7952;48.396;12.806;2023-04-30T16:31:56;18.20;44.20
15705;DHT22;7952;48.396;12.806;2023-04-30T16:34:22;18.20;44.10
15705;DHT22;7952;48.396;12.806;2023-04-30T16:36:47;18.10;44.00
15705;DHT22;7952;48.396;12.806;2023-04-30T16:39:13;18.10;44.00
15705;DHT22;7952;48.396;12.806;2023-04-30T16:41:39;18.10;43.90
15705;DHT22;7952;48.396;12.806;2023-04-30T16:44:05;18.00;43.90